sensor_id;sensor_type;location;lat;lon;timestamp;P1;durP1;ratioP1;P2;durP2;ratioP2
7941;SDS011;4016;50.758;7.150;2023-07-16T00:00:50;3.53;;;2.50;;
7941;SDS011;4016;50.758;7.150;2023-07-16T00:05:51;2.85;;;2.47;;
7941;SDS011;4016;50.758;7.150;2023-07-16T00:10:52;2.75;;;2.05;;
7941;SDS011;4016;50.758;7.150;2023-07-16T00:15:52;2.45;;;2.10;;
7941;SDS011;4016;50.758;7.150;2023-07-16T00:20:52;4.10;;;2.70;;
7941;SDS011;4016;50.758;7.150;2023-07-16T00:25:53;3.05;;;2.45;;
7941;SDS011;4016;50.758;7.150;2023-07-16T00:30:53;2.47;;;2.28;;
7941;SDS011;4016;50.758;7.150;2023-07-16T00:35:54;2.47;;;2.25;;
7941;SDS011;4016;50.758;7.150;2023-07-16T00:40:54;2.65;;;2.40;;
7941;SDS011;4016;50.758;7.150;2023-07-16T00:45:54;3.55;;;2.50;;
7941;SDS011;4016;50.758;7.150;2023-07-16T00:50:55;2.75;;;2.42;;
7941;SDS011;4016;50.758;7.150;2023-07-16T00:55:56;3.38;;;2.88;;
7941;SDS011;4016;50.758;7.150;2023-07-16T01:00:57;3.35;;;2.55;;
7941;SDS011;4016;50.758;7.150;2023-07-16T01:06:00;4.25;;;2.40;;
7941;SDS011;4016;50.758;7.150;2023-07-16T01:11:09;3.22;;;2.70;;
7941;SDS011;4016;50.758;7.150;2023-07-16T01:16:20;2.78;;;1.98;;
7941;SDS011;4016;50.758;7.150;2023-07-16T01:21:22;2.50;;;2.30;;
7941;SDS011;4016;50.758;7.150;2023-07-16T01:31:36;4.30;;;3.05;;
7941;SDS011;4016;50.758;7.150;2023-07-16T01:36:37;2.55;;;2.33;;
7941;SDS011;4016;50.758;7.150;2023-07-16T01:41:39;3.20;;;2.22;;
7941;SDS011;4016;50.758;7.150;2023-07-16T01:46:39;4.40;;;2.50;;
7941;SDS011;4016;50.758;7.150;2023-07-16T01:51:39;4.35;;;2.80;;
7941;SDS011;4016;50.758;7.150;2023-07-16T01:56:40;3.33;;;2.20;;
7941;SDS011;4016;50.758;7.150;2023-07-16T02:01:40;5.38;;;2.58;;
7941;SDS011;4016;50.758;7.150;2023-07-16T02:06:40;2.75;;;2.50;;
7941;SDS011;4016;50.758;7.150;2023-07-16T02:11:41;2.78;;;2.53;;
7941;SDS011;4016;50.758;7.150;2023-07-16T02:16:41;2.22;;;2.08;;
7941;SDS011;4016;50.758;7.150;2023-07-16T02:21:42;2.70;;;2.50;;
7941;SDS011;4016;50.758;7.150;2023-07-16T02:26:42;2.30;;;2.13;;
7941;SDS011;4016;50.758;7.150;2023-07-16T02:31:43;3.03;;;2.55;;
7941;SDS011;4016;50.758;7.150;2023-07-16T02:36:46;3.63;;;2.45;;
7941;SDS011;4016;50.758;7.150;2023-07-16T02:41:46;3.58;;;2.35;;
7941;SDS011;4016;50.758;7.150;2023-07-16T02:46:46;3.45;;;2.20;;
7941;SDS011;4016;50.758;7.150;2023-07-16T02:51:47;3.80;;;2.63;;
7941;SDS011;4016;50.758;7.150;2023-07-16T02:56:47;2.47;;;2.28;;
7941;SDS011;4016;50.758;7.150;2023-07-16T03:01:47;3.42;;;2.53;;
7941;SDS011;4016;50.758;7.150;2023-07-16T03:06:48;3.42;;;2.58;;
7941;SDS011;4016;50.758;7.150;2023-07-16T03:11:48;2.53;;;2.33;;
7941;SDS011;4016;50.758;7.150;2023-07-16T03:16:49;5.20;;;2.80;;
7941;SDS011;4016;50.758;7.150;2023-07-16T03:21:49;2.72;;;2.53;;
7941;SDS011;4016;50.758;7.150;2023-07-16T03:26:50;3.28;;;2.53;;
7941;SDS011;4016;50.758;7.150;2023-07-16T03:31:50;2.63;;;2.22;;
7941;SDS011;4016;50.758;7.150;2023-07-16T03:36:50;3.92;;;3.03;;
7941;SDS011;4016;50.758;7.150;2023-07-16T03:41:51;2.63;;;2.42;;
7941;SDS011;4016;50.758;7.150;2023-07-16T03:46:51;3.63;;;3.00;;
7941;SDS011;4016;50.758;7.150;2023-07-16T03:51:52;4.40;;;2.42;;
7941;SDS011;4016;50.758;7.150;2023-07-16T03:56:52;2.22;;;2.03;;
7941;SDS011;4016;50.758;7.150;2023-07-16T04:01:53;2.92;;;2.60;;
7941;SDS011;4016;50.758;7.150;2023-07-16T04:06:53;2.60;;;2.40;;
7941;SDS011;4016;50.758;7.150;2023-07-16T04:11:53;3.45;;;2.50;;
7941;SDS011;4016;50.758;7.150;2023-07-16T04:16:54;4.07;;;2.95;;
7941;SDS011;4016;50.758;7.150;2023-07-16T04:21:54;3.17;;;2.88;;
7941;SDS011;4016;50.758;7.150;2023-07-16T04:26:55;2.53;;;2.30;;
7941;SDS011;4016;50.758;7.150;2023-07-16T04:31:55;5.35;;;2.97;;
7941;SDS011;4016;50.758;7.150;2023-07-16T04:36:56;3.83;;;2.53;;
7941;SDS011;4016;50.758;7.150;2023-07-16T04:41:56;4.93;;;2.85;;
7941;SDS011;4016;50.758;7.150;2023-07-16T04:46:56;4.18;;;2.88;;
7941;SDS011;4016;50.758;7.150;2023-07-16T04:51:57;3.58;;;2.78;;
7941;SDS011;4016;50.758;7.150;2023-07-16T04:56:57;2.58;;;2.22;;
7941;SDS011;4016;50.758;7.150;2023-07-16T05:01:57;4.97;;;2.97;;
7941;SDS011;4016;50.758;7.150;2023-07-16T05:06:58;3.88;;;2.97;;
7941;SDS011;4016;50.758;7.150;2023-07-16T05:11:58;4.93;;;3.00;;
7941;SDS011;4016;50.758;7.150;2023-07-16T05:16:59;3.08;;;2.88;;
7941;SDS011;4016;50.758;7.150;2023-07-16T05:21:59;5.53;;;3.33;;
7941;SDS011;4016;50.758;7.150;2023-07-16T05:26:59;5.38;;;2.63;;
7941;SDS011;4016;50.758;7.150;2023-07-16T05:32:01;3.72;;;2.88;;
7941;SDS011;4016;50.758;7.150;2023-07-16T05:37:02;4.72;;;2.97;;
7941;SDS011;4016;50.758;7.150;2023-07-16T05:42:03;3.83;;;2.83;;
7941;SDS011;4016;50.758;7.150;2023-07-16T05:47:04;4.25;;;3.30;;
7941;SDS011;4016;50.758;7.150;2023-07-16T05:52:05;5.45;;;3.53;;
7941;SDS011;4016;50.758;7.150;2023-07-16T05:57:06;3.70;;;3.10;;
7941;SDS011;4016;50.758;7.150;2023-07-16T06:02:06;4.15;;;3.72;;
7941;SDS011;4016;50.758;7.150;2023-07-16T06:07:07;4.75;;;3.78;;
7941;SDS011;4016;50.758;7.150;2023-07-16T06:12:07;4.10;;;3.53;;
7941;SDS011;4016;50.758;7.150;2023-07-16T06:17:08;4.82;;;3.67;;
7941;SDS011;4016;50.758;7.150;2023-07-16T06:22:08;5.43;;;3.90;;
7941;SDS011;4016;50.758;7.150;2023-07-16T06:27:09;4.20;;;3.80;;
7941;SDS011;4016;50.758;7.150;2023-07-16T06:32:09;4.32;;;3.42;;
7941;SDS011;4016;50.758;7.150;2023-07-16T06:37:10;4.55;;;3.90;;
7941;SDS011;4016;50.758;7.150;2023-07-16T06:42:10;9.23;;;3.92;;
7941;SDS011;4016;50.758;7.150;2023-07-16T06:47:11;4.00;;;3.60;;
7941;SDS011;4016;50.758;7.150;2023-07-16T06:52:18;5.43;;;4.10;;
7941;SDS011;4016;50.758;7.150;2023-07-16T06:57:22;4.78;;;3.42;;
7941;SDS011;4016;50.758;7.150;2023-07-16T07:02:23;4.70;;;3.50;;
7941;SDS011;4016;50.758;7.150;2023-07-16T07:07:23;4.40;;;3.80;;
7941;SDS011;4016;50.758;7.150;2023-07-16T07:12:24;8.73;;;4.53;;
7941;SDS011;4016;50.758;7.150;2023-07-16T07:17:24;5.43;;;4.38;;
7941;SDS011;4016;50.758;7.150;2023-07-16T07:22:24;7.65;;;4.55;;
7941;SDS011;4016;50.758;7.150;2023-07-16T07:27:25;4.13;;;3.65;;
7941;SDS011;4016;50.758;7.150;2023-07-16T07:32:25;6.05;;;4.40;;
7941;SDS011;4016;50.758;7.150;2023-07-16T07:37:26;5.57;;;4.40;;
7941;SDS011;4016;50.758;7.150;2023-07-16T07:42:26;6.00;;;4.28;;
7941;SDS011;4016;50.758;7.150;2023-07-16T07:47:29;4.50;;;4.05;;
7941;SDS011;4016;50.758;7.150;2023-07-16T07:52:29;5.65;;;4.05;;
7941;SDS011;4016;50.758;7.150;2023-07-16T07:57:30;5.05;;;4.45;;
7941;SDS011;4016;50.758;7.150;2023-07-16T08:02:30;6.00;;;4.95;;
7941;SDS011;4016;50.758;7.150;2023-07-16T08:07:31;5.80;;;4.85;;
7941;SDS011;4016;50.758;7.150;2023-07-16T08:12:31;4.50;;;4.10;;
7941;SDS011;4016;50.758;7.150;2023-07-16T08:17:32;5.32;;;4.30;;
7941;SDS011;4016;50.758;7.150;2023-07-16T08:22:32;6.35;;;4.35;;
7941;SDS011;4016;50.758;7.150;2023-07-16T08:27:32;7.28;;;4.20;;
7941;SDS011;4016;50.758;7.150;2023-07-16T08:32:34;7.05;;;4.80;;
7941;SDS011;4016;50.758;7.150;2023-07-16T08:37:34;5.45;;;4.65;;
7941;SDS011;4016;50.758;7.150;2023-07-16T08:42:34;6.47;;;4.43;;
7941;SDS011;4016;50.758;7.150;2023-07-16T08:47:37;5.22;;;4.72;;
7941;SDS011;4016;50.758;7.150;2023-07-16T08:52:37;6.45;;;4.53;;
7941;SDS011;4016;50.758;7.150;2023-07-16T08:57:39;5.18;;;4.40;;
7941;SDS011;4016;50.758;7.150;2023-07-16T09:02:40;6.55;;;4.20;;
7941;SDS011;4016;50.758;7.150;2023-07-16T09:07:41;5.65;;;3.90;;
7941;SDS011;4016;50.758;7.150;2023-07-16T09:12:42;5.20;;;4.20;;
7941;SDS011;4016;50.758;7.150;2023-07-16T09:17:46;3.88;;;3.53;;
7941;SDS011;4016;50.758;7.150;2023-07-16T09:22:48;5.72;;;3.58;;
7941;SDS011;4016;50.758;7.150;2023-07-16T09:27:48;4.70;;;3.58;;
7941;SDS011;4016;50.758;7.150;2023-07-16T09:32:49;3.67;;;3.35;;
7941;SDS011;4016;50.758;7.150;2023-07-16T09:37:50;3.83;;;3.40;;
7941;SDS011;4016;50.758;7.150;2023-07-16T09:42:51;4.13;;;3.45;;
7941;SDS011;4016;50.758;7.150;2023-07-16T09:47:52;3.90;;;3.50;;
7941;SDS011;4016;50.758;7.150;2023-07-16T09:52:53;4.35;;;3.50;;
7941;SDS011;4016;50.758;7.150;2023-07-16T09:57:56;5.53;;;4.25;;
7941;SDS011;4016;50.758;7.150;2023-07-16T10:02:57;4.25;;;3.63;;
7941;SDS011;4016;50.758;7.150;2023-07-16T10:07:58;4.25;;;3.85;;
7941;SDS011;4016;50.758;7.150;2023-07-16T10:13:02;4.45;;;3.40;;
7941;SDS011;4016;50.758;7.150;2023-07-16T10:18:03;3.92;;;3.55;;
7941;SDS011;4016;50.758;7.150;2023-07-16T10:23:12;5.00;;;3.70;;
7941;SDS011;4016;50.758;7.150;2023-07-16T10:28:14;4.68;;;3.83;;
7941;SDS011;4016;50.758;7.150;2023-07-16T10:33:14;6.68;;;4.05;;
7941;SDS011;4016;50.758;7.150;2023-07-16T10:38:14;4.30;;;3.75;;
7941;SDS011;4016;50.758;7.150;2023-07-16T10:43:15;4.60;;;3.30;;
7941;SDS011;4016;50.758;7.150;2023-07-16T10:48:15;3.90;;;3.60;;
7941;SDS011;4016;50.758;7.150;2023-07-16T10:53:16;5.38;;;3.65;;
7941;SDS011;4016;50.758;7.150;2023-07-16T10:58:19;3.90;;;3.53;;
7941;SDS011;4016;50.758;7.150;2023-07-16T11:03:19;3.90;;;3.50;;
7941;SDS011;4016;50.758;7.150;2023-07-16T11:08:23;5.13;;;3.80;;
7941;SDS011;4016;50.758;7.150;2023-07-16T11:13:25;5.05;;;4.00;;
7941;SDS011;4016;50.758;7.150;2023-07-16T11:18:26;4.70;;;3.78;;
7941;SDS011;4016;50.758;7.150;2023-07-16T11:23:26;4.63;;;3.30;;
7941;SDS011;4016;50.758;7.150;2023-07-16T11:28:35;4.20;;;3.72;;
7941;SDS011;4016;50.758;7.150;2023-07-16T11:33:36;4.85;;;3.70;;
7941;SDS011;4016;50.758;7.150;2023-07-16T11:38:37;3.90;;;3.45;;
7941;SDS011;4016;50.758;7.150;2023-07-16T11:43:39;3.40;;;3.10;;
7941;SDS011;4016;50.758;7.150;2023-07-16T11:48:40;4.15;;;3.70;;
7941;SDS011;4016;50.758;7.150;2023-07-16T11:53:40;4.68;;;3.83;;
7941;SDS011;4016;50.758;7.150;2023-07-16T11:58:41;4.05;;;3.22;;
7941;SDS011;4016;50.758;7.150;2023-07-16T12:03:41;5.60;;;3.88;;
7941;SDS011;4016;50.758;7.150;2023-07-16T12:08:41;3.92;;;3.38;;
7941;SDS011;4016;50.758;7.150;2023-07-16T12:13:42;4.75;;;3.28;;
7941;SDS011;4016;50.758;7.150;2023-07-16T12:18:42;3.53;;;3.22;;
7941;SDS011;4016;50.758;7.150;2023-07-16T12:23:42;4.30;;;3.47;;
7941;SDS011;4016;50.758;7.150;2023-07-16T12:28:43;5.65;;;3.38;;
7941;SDS011;4016;50.758;7.150;2023-07-16T12:33:43;3.90;;;3.50;;
7941;SDS011;4016;50.758;7.150;2023-07-16T12:38:44;4.20;;;3.80;;
7941;SDS011;4016;50.758;7.150;2023-07-16T12:43:44;4.27;;;3.70;;
7941;SDS011;4016;50.758;7.150;2023-07-16T12:48:45;4.20;;;3.58;;
7941;SDS011;4016;50.758;7.150;2023-07-16T12:53:46;3.63;;;2.95;;
7941;SDS011;4016;50.758;7.150;2023-07-16T12:58:47;5.80;;;3.70;;
7941;SDS011;4016;50.758;7.150;2023-07-16T13:03:48;3.70;;;3.40;;
7941;SDS011;4016;50.758;7.150;2023-07-16T13:08:48;3.92;;;3.40;;
7941;SDS011;4016;50.758;7.150;2023-07-16T13:13:50;4.53;;;3.17;;
7941;SDS011;4016;50.758;7.150;2023-07-16T13:18:50;4.03;;;3.40;;
7941;SDS011;4016;50.758;7.150;2023-07-16T13:23:50;3.97;;;3.00;;
7941;SDS011;4016;50.758;7.150;2023-07-16T13:28:51;3.80;;;3.40;;
7941;SDS011;4016;50.758;7.150;2023-07-16T13:33:52;6.70;;;3.65;;
7941;SDS011;4016;50.758;7.150;2023-07-16T13:38:52;4.40;;;3.30;;
7941;SDS011;4016;50.758;7.150;2023-07-16T13:43:53;4.60;;;3.40;;
7941;SDS011;4016;50.758;7.150;2023-07-16T13:48:53;4.45;;;3.67;;
7941;SDS011;4016;50.758;7.150;2023-07-16T13:53:54;5.30;;;3.65;;
7941;SDS011;4016;50.758;7.150;2023-07-16T13:58:54;4.45;;;3.15;;
7941;SDS011;4016;50.758;7.150;2023-07-16T14:03:54;4.03;;;3.63;;
7941;SDS011;4016;50.758;7.150;2023-07-16T14:08:55;4.18;;;3.50;;
7941;SDS011;4016;50.758;7.150;2023-07-16T14:13:55;5.33;;;3.73;;
7941;SDS011;4016;50.758;7.150;2023-07-16T14:18:56;3.63;;;3.25;;
7941;SDS011;4016;50.758;7.150;2023-07-16T14:23:57;5.03;;;3.83;;
7941;SDS011;4016;50.758;7.150;2023-07-16T14:28:58;4.25;;;3.70;;
7941;SDS011;4016;50.758;7.150;2023-07-16T14:33:58;3.90;;;3.33;;
7941;SDS011;4016;50.758;7.150;2023-07-16T14:38:59;4.78;;;3.60;;
7941;SDS011;4016;50.758;7.150;2023-07-16T14:43:59;4.53;;;3.47;;
7941;SDS011;4016;50.758;7.150;2023-07-16T14:48:59;4.13;;;3.33;;
7941;SDS011;4016;50.758;7.150;2023-07-16T14:54:00;3.55;;;3.20;;
7941;SDS011;4016;50.758;7.150;2023-07-16T14:59:00;4.20;;;3.37;;
7941;SDS011;4016;50.758;7.150;2023-07-16T15:04:00;4.22;;;3.63;;
7941;SDS011;4016;50.758;7.150;2023-07-16T15:09:01;3.38;;;3.08;;
7941;SDS011;4016;50.758;7.150;2023-07-16T15:14:01;3.55;;;3.25;;
7941;SDS011;4016;50.758;7.150;2023-07-16T15:19:02;4.63;;;3.42;;
7941;SDS011;4016;50.758;7.150;2023-07-16T15:24:02;3.90;;;3.03;;
7941;SDS011;4016;50.758;7.150;2023-07-16T15:29:03;4.40;;;3.38;;
7941;SDS011;4016;50.758;7.150;2023-07-16T15:34:04;4.28;;;3.60;;
7941;SDS011;4016;50.758;7.150;2023-07-16T15:39:05;5.73;;;3.30;;
7941;SDS011;4016;50.758;7.150;2023-07-16T15:44:06;4.82;;;3.55;;
7941;SDS011;4016;50.758;7.150;2023-07-16T15:49:06;4.30;;;3.58;;
7941;SDS011;4016;50.758;7.150;2023-07-16T15:54:07;4.35;;;3.15;;
7941;SDS011;4016;50.758;7.150;2023-07-16T15:59:07;9.48;;;5.60;;
7941;SDS011;4016;50.758;7.150;2023-07-16T16:04:07;5.17;;;3.60;;
7941;SDS011;4016;50.758;7.150;2023-07-16T16:09:08;5.18;;;3.72;;
7941;SDS011;4016;50.758;7.150;2023-07-16T16:14:08;4.35;;;3.40;;
7941;SDS011;4016;50.758;7.150;2023-07-16T16:19:08;4.93;;;3.43;;
7941;SDS011;4016;50.758;7.150;2023-07-16T16:24:09;4.07;;;3.65;;
7941;SDS011;4016;50.758;7.150;2023-07-16T16:29:09;6.10;;;3.50;;
7941;SDS011;4016;50.758;7.150;2023-07-16T16:34:10;4.00;;;3.60;;
7941;SDS011;4016;50.758;7.150;2023-07-16T16:39:10;3.73;;;3.37;;
7941;SDS011;4016;50.758;7.150;2023-07-16T16:44:10;4.70;;;3.27;;
7941;SDS011;4016;50.758;7.150;2023-07-16T16:49:11;5.10;;;3.90;;
7941;SDS011;4016;50.758;7.150;2023-07-16T16:54:11;4.03;;;3.63;;
7941;SDS011;4016;50.758;7.150;2023-07-16T16:59:11;5.53;;;4.53;;
7941;SDS011;4016;50.758;7.150;2023-07-16T17:04:12;5.38;;;4.05;;
7941;SDS011;4016;50.758;7.150;2023-07-16T17:09:12;5.77;;;4.70;;
7941;SDS011;4016;50.758;7.150;2023-07-16T17:14:13;4.82;;;4.28;;
7941;SDS011;4016;50.758;7.150;2023-07-16T17:19:14;5.13;;;3.97;;
7941;SDS011;4016;50.758;7.150;2023-07-16T17:24:15;5.28;;;3.60;;
7941;SDS011;4016;50.758;7.150;2023-07-16T17:29:15;4.90;;;3.75;;
7941;SDS011;4016;50.758;7.150;2023-07-16T17:34:15;5.13;;;4.50;;
7941;SDS011;4016;50.758;7.150;2023-07-16T17:39:16;6.60;;;4.03;;
7941;SDS011;4016;50.758;7.150;2023-07-16T17:44:16;3.75;;;3.30;;
7941;SDS011;4016;50.758;7.150;2023-07-16T17:49:16;4.25;;;3.85;;
7941;SDS011;4016;50.758;7.150;2023-07-16T17:54:17;4.30;;;3.42;;
7941;SDS011;4016;50.758;7.150;2023-07-16T17:59:18;4.18;;;3.58;;
7941;SDS011;4016;50.758;7.150;2023-07-16T18:04:19;4.00;;;3.60;;
7941;SDS011;4016;50.758;7.150;2023-07-16T18:09:20;5.77;;;3.70;;
7941;SDS011;4016;50.758;7.150;2023-07-16T18:14:20;5.15;;;3.88;;
7941;SDS011;4016;50.758;7.150;2023-07-16T18:19:20;3.92;;;3.42;;
7941;SDS011;4016;50.758;7.150;2023-07-16T18:24:21;6.47;;;3.92;;
7941;SDS011;4016;50.758;7.150;2023-07-16T18:29:21;3.92;;;3.10;;
7941;SDS011;4016;50.758;7.150;2023-07-16T18:34:22;4.25;;;3.85;;
7941;SDS011;4016;50.758;7.150;2023-07-16T18:39:22;4.75;;;4.28;;
7941;SDS011;4016;50.758;7.150;2023-07-16T18:44:22;5.23;;;3.70;;
7941;SDS011;4016;50.758;7.150;2023-07-16T18:49:23;5.07;;;4.05;;
7941;SDS011;4016;50.758;7.150;2023-07-16T18:54:23;4.55;;;4.05;;
7941;SDS011;4016;50.758;7.150;2023-07-16T18:59:24;6.30;;;3.92;;
7941;SDS011;4016;50.758;7.150;2023-07-16T19:04:24;4.45;;;3.78;;
7941;SDS011;4016;50.758;7.150;2023-07-16T19:09:24;4.10;;;3.70;;
7941;SDS011;4016;50.758;7.150;2023-07-16T19:14:25;4.78;;;3.80;;
7941;SDS011;4016;50.758;7.150;2023-07-16T19:19:26;4.63;;;3.63;;
7941;SDS011;4016;50.758;7.150;2023-07-16T19:24:26;4.03;;;3.63;;
7941;SDS011;4016;50.758;7.150;2023-07-16T19:29:26;4.45;;;3.90;;
7941;SDS011;4016;50.758;7.150;2023-07-16T19:34:27;5.13;;;3.72;;
7941;SDS011;4016;50.758;7.150;2023-07-16T19:39:27;5.03;;;3.70;;
7941;SDS011;4016;50.758;7.150;2023-07-16T19:44:29;4.78;;;4.00;;
7941;SDS011;4016;50.758;7.150;2023-07-16T19:49:30;5.10;;;3.78;;
7941;SDS011;4016;50.758;7.150;2023-07-16T19:54:31;4.70;;;4.00;;
7941;SDS011;4016;50.758;7.150;2023-07-16T19:59:31;4.75;;;3.72;;
7941;SDS011;4016;50.758;7.150;2023-07-16T20:04:32;5.07;;;3.63;;
7941;SDS011;4016;50.758;7.150;2023-07-16T20:09:32;4.28;;;3.53;;
7941;SDS011;4016;50.758;7.150;2023-07-16T20:14:33;4.95;;;3.40;;
7941;SDS011;4016;50.758;7.150;2023-07-16T20:19:33;5.22;;;3.60;;
7941;SDS011;4016;50.758;7.150;2023-07-16T20:24:33;4.80;;;3.70;;
7941;SDS011;4016;50.758;7.150;2023-07-16T20:29:34;5.15;;;3.40;;
7941;SDS011;4016;50.758;7.150;2023-07-16T20:34:35;7.90;;;3.92;;
7941;SDS011;4016;50.758;7.150;2023-07-16T20:39:35;5.97;;;3.60;;
7941;SDS011;4016;50.758;7.150;2023-07-16T20:44:36;5.57;;;3.83;;
7941;SDS011;4016;50.758;7.150;2023-07-16T20:49:36;5.18;;;4.15;;
7941;SDS011;4016;50.758;7.150;2023-07-16T20:54:37;4.32;;;3.30;;
7941;SDS011;4016;50.758;7.150;2023-07-16T20:59:37;3.80;;;3.38;;
7941;SDS011;4016;50.758;7.150;2023-07-16T21:04:37;4.65;;;3.47;;
7941;SDS011;4016;50.758;7.150;2023-07-16T21:09:38;4.60;;;3.25;;
7941;SDS011;4016;50.758;7.150;2023-07-16T21:14:38;4.68;;;3.42;;
7941;SDS011;4016;50.758;7.150;2023-07-16T21:19:39;3.38;;;3.08;;
7941;SDS011;4016;50.758;7.150;2023-07-16T21:24:39;3.67;;;3.17;;
7941;SDS011;4016;50.758;7.150;2023-07-16T21:29:40;4.32;;;3.38;;
7941;SDS011;4016;50.758;7.150;2023-07-16T21:34:40;5.80;;;3.83;;
7941;SDS011;4016;50.758;7.150;2023-07-16T21:39:42;4.80;;;3.78;;
7941;SDS011;4016;50.758;7.150;2023-07-16T21:44:43;5.20;;;4.00;;
7941;SDS011;4016;50.758;7.150;2023-07-16T21:49:43;5.05;;;3.20;;
7941;SDS011;4016;50.758;7.150;2023-07-16T21:54:45;3.63;;;3.30;;
7941;SDS011;4016;50.758;7.150;2023-07-16T21:59:46;4.78;;;3.55;;
7941;SDS011;4016;50.758;7.150;2023-07-16T22:04:47;3.70;;;3.17;;
7941;SDS011;4016;50.758;7.150;2023-07-16T22:09:47;5.07;;;3.55;;
7941;SDS011;4016;50.758;7.150;2023-07-16T22:14:48;5.10;;;3.67;;
7941;SDS011;4016;50.758;7.150;2023-07-16T22:19:48;4.07;;;3.58;;
7941;SDS011;4016;50.758;7.150;2023-07-16T22:24:49;5.03;;;3.55;;
7941;SDS011;4016;50.758;7.150;2023-07-16T22:29:49;6.15;;;4.10;;
7941;SDS011;4016;50.758;7.150;2023-07-16T22:34:50;5.88;;;3.63;;
7941;SDS011;4016;50.758;7.150;2023-07-16T22:39:50;5.32;;;3.40;;
7941;SDS011;4016;50.758;7.150;2023-07-16T22:44:51;5.72;;;3.70;;
7941;SDS011;4016;50.758;7.150;2023-07-16T22:49:51;5.60;;;3.67;;
7941;SDS011;4016;50.758;7.150;2023-07-16T22:54:52;5.97;;;3.63;;
7941;SDS011;4016;50.758;7.150;2023-07-16T22:59:52;5.75;;;3.42;;
7941;SDS011;4016;50.758;7.150;2023-07-16T23:04:53;4.22;;;3.70;;
7941;SDS011;4016;50.758;7.150;2023-07-16T23:09:53;4.40;;;3.63;;
7941;SDS011;4016;50.758;7.150;2023-07-16T23:14:54;5.00;;;4.10;;
7941;SDS011;4016;50.758;7.150;2023-07-16T23:19:54;4.38;;;3.88;;
7941;SDS011;4016;50.758;7.150;2023-07-16T23:24:56;5.75;;;4.03;;
7941;SDS011;4016;50.758;7.150;2023-07-16T23:29:56;3.70;;;3.30;;
7941;SDS011;4016;50.758;7.150;2023-07-16T23:34:57;5.20;;;3.80;;
7941;SDS011;4016;50.758;7.150;2023-07-16T23:39:57;5.63;;;3.45;;
7941;SDS011;4016;50.758;7.150;2023-07-16T23:44:57;5.80;;;3.58;;
7941;SDS011;4016;50.758;7.150;2023-07-16T23:49:58;5.45;;;4.20;;
7941;SDS011;4016;50.758;7.150;2023-07-16T23:54:58;3.63;;;3.33;;
7941;SDS011;4016;50.758;7.150;2023-07-16T23:59:58;5.10;;;3.65;;
